Akwesasne, New York
Current Conditions -  °F | °C
As of 7:53 AM on Saturday 01 Nov 2014 (Local Time) from KMSS Reporting Station
Overcast Overcast  
Wind Chill: 31°   Ceiling: 7000
Heat Index: 37°   Visibility: 10mi
Dew Point: 29°   Wind: 8mph
Humidity: 73%   Direction: 10°N
Pressure: 30.11"   Gusts: NA
Location:  44.9835°N, 74.6107°W
Report Text: KMSS 011153Z AUTO 01007KT 10SM OVC070 03/M02 A3011 RMK AO2 SLP202 T00281017 10033 20028 51013
Loading
Personal Weather Stations






























Interactive Weather Map
Tropical Storm Tracking
New forecast layout! Learn more

10-Day Weather Forecast

Advertisements
Track Severe Weather on mobile